sensor_id;sensor_type;location;lat;lon;timestamp;P1;durP1;ratioP1;P2;durP2;ratioP2
70946;SDS011;58605;48.700;8.760;2022-07-05T00:01:19;6.60;;;5.70;;
70946;SDS011;58605;48.700;8.760;2022-07-05T00:03:45;7.07;;;5.73;;
70946;SDS011;58605;48.700;8.760;2022-07-05T00:06:11;6.30;;;5.50;;
70946;SDS011;58605;48.700;8.760;2022-07-05T00:08:44;7.47;;;6.00;;
70946;SDS011;58605;48.700;8.760;2022-07-05T00:11:10;6.97;;;6.27;;
70946;SDS011;58605;48.700;8.760;2022-07-05T00:13:36;6.20;;;5.70;;
70946;SDS011;58605;48.700;8.760;2022-07-05T00:16:03;6.17;;;5.70;;
70946;SDS011;58605;48.700;8.760;2022-07-05T00:18:30;7.90;;;6.00;;
70946;SDS011;58605;48.700;8.760;2022-07-05T00:20:56;6.50;;;5.53;;
70946;SDS011;58605;48.700;8.760;2022-07-05T00:23:22;6.57;;;5.80;;
70946;SDS011;58605;48.700;8.760;2022-07-05T00:25:48;6.40;;;5.50;;
70946;SDS011;58605;48.700;8.760;2022-07-05T00:28:14;6.47;;;5.97;;
70946;SDS011;58605;48.700;8.760;2022-07-05T00:30:40;6.03;;;5.57;;
70946;SDS011;58605;48.700;8.760;2022-07-05T00:33:08;6.33;;;5.70;;
70946;SDS011;58605;48.700;8.760;2022-07-05T00:35:34;5.77;;;5.30;;
70946;SDS011;58605;48.700;8.760;2022-07-05T00:38:08;5.73;;;5.23;;
70946;SDS011;58605;48.700;8.760;2022-07-05T00:40:34;6.10;;;5.60;;
70946;SDS011;58605;48.700;8.760;2022-07-05T00:43:00;8.17;;;5.40;;
70946;SDS011;58605;48.700;8.760;2022-07-05T00:45:26;6.43;;;4.50;;
70946;SDS011;58605;48.700;8.760;2022-07-05T00:47:52;5.40;;;4.90;;
70946;SDS011;58605;48.700;8.760;2022-07-05T00:50:19;6.27;;;4.13;;
70946;SDS011;58605;48.700;8.760;2022-07-05T00:52:45;5.20;;;4.50;;
70946;SDS011;58605;48.700;8.760;2022-07-05T00:55:11;4.67;;;4.27;;
70946;SDS011;58605;48.700;8.760;2022-07-05T00:57:37;4.67;;;4.13;;
70946;SDS011;58605;48.700;8.760;2022-07-05T01:00:04;4.97;;;3.97;;
70946;SDS011;58605;48.700;8.760;2022-07-05T01:02:34;4.37;;;3.97;;
70946;SDS011;58605;48.700;8.760;2022-07-05T01:05:00;4.60;;;4.20;;
70946;SDS011;58605;48.700;8.760;2022-07-05T01:07:30;4.60;;;4.20;;
70946;SDS011;58605;48.700;8.760;2022-07-05T01:09:56;5.23;;;4.73;;
70946;SDS011;58605;48.700;8.760;2022-07-05T01:12:22;5.10;;;4.63;;
70946;SDS011;58605;48.700;8.760;2022-07-05T01:14:48;5.43;;;5.00;;
70946;SDS011;58605;48.700;8.760;2022-07-05T01:17:14;5.87;;;5.27;;
70946;SDS011;58605;48.700;8.760;2022-07-05T01:19:41;5.70;;;5.20;;
70946;SDS011;58605;48.700;8.760;2022-07-05T01:22:09;6.03;;;5.47;;
70946;SDS011;58605;48.700;8.760;2022-07-05T01:24:43;6.00;;;5.27;;
70946;SDS011;58605;48.700;8.760;2022-07-05T01:27:10;6.23;;;5.73;;
70946;SDS011;58605;48.700;8.760;2022-07-05T01:29:36;7.53;;;5.63;;
70946;SDS011;58605;48.700;8.760;2022-07-05T01:32:02;5.43;;;5.03;;
70946;SDS011;58605;48.700;8.760;2022-07-05T01:34:29;6.57;;;5.90;;
70946;SDS011;58605;48.700;8.760;2022-07-05T01:36:55;6.80;;;6.20;;
70946;SDS011;58605;48.700;8.760;2022-07-05T01:39:21;6.17;;;5.67;;
70946;SDS011;58605;48.700;8.760;2022-07-05T01:41:48;7.23;;;6.13;;
70946;SDS011;58605;48.700;8.760;2022-07-05T01:44:15;6.00;;;5.50;;
70946;SDS011;58605;48.700;8.760;2022-07-05T01:46:41;6.87;;;6.20;;
70946;SDS011;58605;48.700;8.760;2022-07-05T01:49:09;6.70;;;6.10;;
70946;SDS011;58605;48.700;8.760;2022-07-05T01:51:39;6.47;;;5.87;;
70946;SDS011;58605;48.700;8.760;2022-07-05T01:54:10;5.30;;;4.80;;
70946;SDS011;58605;48.700;8.760;2022-07-05T01:56:37;5.23;;;4.83;;
70946;SDS011;58605;48.700;8.760;2022-07-05T01:59:05;6.17;;;5.53;;
70946;SDS011;58605;48.700;8.760;2022-07-05T02:01:33;6.27;;;5.67;;
70946;SDS011;58605;48.700;8.760;2022-07-05T02:04:01;6.37;;;5.77;;
70946;SDS011;58605;48.700;8.760;2022-07-05T02:06:27;6.17;;;5.40;;
70946;SDS011;58605;48.700;8.760;2022-07-05T02:08:55;7.10;;;6.40;;
70946;SDS011;58605;48.700;8.760;2022-07-05T02:11:21;7.63;;;6.77;;
70946;SDS011;58605;48.700;8.760;2022-07-05T02:13:47;7.10;;;6.50;;
70946;SDS011;58605;48.700;8.760;2022-07-05T02:16:14;6.40;;;5.90;;
70946;SDS011;58605;48.700;8.760;2022-07-05T02:18:40;6.87;;;6.17;;
70946;SDS011;58605;48.700;8.760;2022-07-05T02:21:06;6.10;;;5.60;;
70946;SDS011;58605;48.700;8.760;2022-07-05T02:23:32;6.37;;;5.77;;
70946;SDS011;58605;48.700;8.760;2022-07-05T02:25:58;6.50;;;6.00;;
70946;SDS011;58605;48.700;8.760;2022-07-05T02:28:24;6.90;;;6.20;;
70946;SDS011;58605;48.700;8.760;2022-07-05T02:30:50;7.07;;;6.57;;
70946;SDS011;58605;48.700;8.760;2022-07-05T02:33:17;6.53;;;5.93;;
70946;SDS011;58605;48.700;8.760;2022-07-05T02:35:43;7.10;;;6.47;;
70946;SDS011;58605;48.700;8.760;2022-07-05T02:38:09;8.33;;;6.73;;
70946;SDS011;58605;48.700;8.760;2022-07-05T02:40:35;6.60;;;6.10;;
70946;SDS011;58605;48.700;8.760;2022-07-05T02:43:01;7.37;;;6.03;;
70946;SDS011;58605;48.700;8.760;2022-07-05T02:45:27;6.70;;;6.20;;
70946;SDS011;58605;48.700;8.760;2022-07-05T02:47:53;6.77;;;6.10;;
70946;SDS011;58605;48.700;8.760;2022-07-05T02:50:21;6.80;;;6.10;;
70946;SDS011;58605;48.700;8.760;2022-07-05T02:52:47;7.10;;;6.53;;
70946;SDS011;58605;48.700;8.760;2022-07-05T02:55:13;7.23;;;6.53;;
70946;SDS011;58605;48.700;8.760;2022-07-05T02:57:39;6.93;;;6.43;;
70946;SDS011;58605;48.700;8.760;2022-07-05T03:00:05;7.17;;;6.57;;
70946;SDS011;58605;48.700;8.760;2022-07-05T03:02:32;7.57;;;6.63;;
70946;SDS011;58605;48.700;8.760;2022-07-05T03:04:58;7.80;;;7.20;;
70946;SDS011;58605;48.700;8.760;2022-07-05T03:07:26;7.47;;;6.73;;
70946;SDS011;58605;48.700;8.760;2022-07-05T03:09:52;7.63;;;6.73;;
70946;SDS011;58605;48.700;8.760;2022-07-05T03:12:18;8.27;;;7.50;;
70946;SDS011;58605;48.700;8.760;2022-07-05T03:14:44;8.67;;;6.70;;
70946;SDS011;58605;48.700;8.760;2022-07-05T03:17:10;8.30;;;6.40;;
70946;SDS011;58605;48.700;8.760;2022-07-05T03:19:36;7.03;;;6.43;;
70946;SDS011;58605;48.700;8.760;2022-07-05T03:22:02;6.70;;;6.20;;
70946;SDS011;58605;48.700;8.760;2022-07-05T03:24:30;7.73;;;6.53;;
70946;SDS011;58605;48.700;8.760;2022-07-05T03:26:56;7.63;;;7.03;;
70946;SDS011;58605;48.700;8.760;2022-07-05T03:29:22;7.23;;;6.60;;
70946;SDS011;58605;48.700;8.760;2022-07-05T03:31:48;6.97;;;6.27;;
70946;SDS011;58605;48.700;8.760;2022-07-05T03:34:14;7.20;;;6.50;;
70946;SDS011;58605;48.700;8.760;2022-07-05T03:36:40;7.57;;;6.77;;
70946;SDS011;58605;48.700;8.760;2022-07-05T03:39:06;7.43;;;6.83;;
70946;SDS011;58605;48.700;8.760;2022-07-05T03:41:33;7.70;;;6.87;;
70946;SDS011;58605;48.700;8.760;2022-07-05T03:43:59;7.67;;;6.97;;
70946;SDS011;58605;48.700;8.760;2022-07-05T03:46:25;7.70;;;7.00;;
70946;SDS011;58605;48.700;8.760;2022-07-05T03:48:51;7.70;;;7.00;;
70946;SDS011;58605;48.700;8.760;2022-07-05T03:51:17;7.73;;;6.97;;
70946;SDS011;58605;48.700;8.760;2022-07-05T03:53:43;7.93;;;6.97;;
70946;SDS011;58605;48.700;8.760;2022-07-05T03:56:09;7.97;;;7.20;;
70946;SDS011;58605;48.700;8.760;2022-07-05T03:58:37;6.77;;;6.10;;
70946;SDS011;58605;48.700;8.760;2022-07-05T04:01:03;7.30;;;6.53;;
70946;SDS011;58605;48.700;8.760;2022-07-05T04:03:29;6.80;;;6.20;;
70946;SDS011;58605;48.700;8.760;2022-07-05T04:05:55;7.20;;;6.57;;
70946;SDS011;58605;48.700;8.760;2022-07-05T04:08:21;7.50;;;6.90;;
70946;SDS011;58605;48.700;8.760;2022-07-05T04:10:47;7.30;;;6.70;;
70946;SDS011;58605;48.700;8.760;2022-07-05T04:13:14;7.47;;;6.80;;
70946;SDS011;58605;48.700;8.760;2022-07-05T04:15:41;8.03;;;7.33;;
70946;SDS011;58605;48.700;8.760;2022-07-05T04:18:07;8.60;;;7.90;;
70946;SDS011;58605;48.700;8.760;2022-07-05T04:20:33;9.23;;;7.63;;
70946;SDS011;58605;48.700;8.760;2022-07-05T04:22:59;8.90;;;8.10;;
70946;SDS011;58605;48.700;8.760;2022-07-05T04:25:25;7.57;;;6.87;;
70946;SDS011;58605;48.700;8.760;2022-07-05T04:27:51;8.30;;;7.50;;
70946;SDS011;58605;48.700;8.760;2022-07-05T04:30:20;8.93;;;8.03;;
70946;SDS011;58605;48.700;8.760;2022-07-05T04:32:49;8.97;;;7.67;;
70946;SDS011;58605;48.700;8.760;2022-07-05T04:35:15;9.37;;;8.40;;
70946;SDS011;58605;48.700;8.760;2022-07-05T04:37:42;7.93;;;7.13;;
70946;SDS011;58605;48.700;8.760;2022-07-05T04:40:10;7.43;;;6.83;;
70946;SDS011;58605;48.700;8.760;2022-07-05T04:42:37;8.27;;;7.47;;
70946;SDS011;58605;48.700;8.760;2022-07-05T04:45:03;7.93;;;7.23;;
70946;SDS011;58605;48.700;8.760;2022-07-05T04:47:30;7.37;;;6.70;;
70946;SDS011;58605;48.700;8.760;2022-07-05T04:49:57;7.23;;;5.90;;
70946;SDS011;58605;48.700;8.760;2022-07-05T04:52:24;6.53;;;6.00;;
70946;SDS011;58605;48.700;8.760;2022-07-05T04:54:50;7.87;;;6.50;;
70946;SDS011;58605;48.700;8.760;2022-07-05T04:57:16;7.33;;;6.50;;
70946;SDS011;58605;48.700;8.760;2022-07-05T04:59:42;7.97;;;6.60;;
70946;SDS011;58605;48.700;8.760;2022-07-05T05:02:08;6.67;;;6.07;;
70946;SDS011;58605;48.700;8.760;2022-07-05T05:04:34;6.33;;;5.73;;
70946;SDS011;58605;48.700;8.760;2022-07-05T05:07:02;6.40;;;5.80;;
70946;SDS011;58605;48.700;8.760;2022-07-05T05:09:29;7.57;;;6.83;;
70946;SDS011;58605;48.700;8.760;2022-07-05T05:11:55;7.17;;;6.13;;
70946;SDS011;58605;48.700;8.760;2022-07-05T05:14:21;6.60;;;6.00;;
70946;SDS011;58605;48.700;8.760;2022-07-05T05:16:47;7.27;;;6.67;;
70946;SDS011;58605;48.700;8.760;2022-07-05T05:19:13;10.80;;;7.53;;
70946;SDS011;58605;48.700;8.760;2022-07-05T05:21:39;6.70;;;6.20;;
70946;SDS011;58605;48.700;8.760;2022-07-05T05:24:07;7.37;;;6.73;;
70946;SDS011;58605;48.700;8.760;2022-07-05T05:26:33;7.50;;;6.80;;
70946;SDS011;58605;48.700;8.760;2022-07-05T05:28:59;6.40;;;5.90;;
70946;SDS011;58605;48.700;8.760;2022-07-05T05:31:25;8.57;;;6.20;;
70946;SDS011;58605;48.700;8.760;2022-07-05T05:33:51;6.27;;;5.67;;
70946;SDS011;58605;48.700;8.760;2022-07-05T05:36:17;8.83;;;5.70;;
70946;SDS011;58605;48.700;8.760;2022-07-05T05:38:43;5.10;;;4.60;;
70946;SDS011;58605;48.700;8.760;2022-07-05T05:41:10;7.87;;;5.10;;
70946;SDS011;58605;48.700;8.760;2022-07-05T05:43:36;5.37;;;4.60;;
70946;SDS011;58605;48.700;8.760;2022-07-05T05:46:02;5.10;;;4.53;;
70946;SDS011;58605;48.700;8.760;2022-07-05T05:48:28;5.17;;;4.77;;
70946;SDS011;58605;48.700;8.760;2022-07-05T05:50:54;4.87;;;4.10;;
70946;SDS011;58605;48.700;8.760;2022-07-05T05:53:21;5.03;;;4.17;;
70946;SDS011;58605;48.700;8.760;2022-07-05T05:55:47;5.53;;;3.90;;
70946;SDS011;58605;48.700;8.760;2022-07-05T05:58:16;4.83;;;4.43;;
70946;SDS011;58605;48.700;8.760;2022-07-05T06:00:43;5.73;;;5.13;;
70946;SDS011;58605;48.700;8.760;2022-07-05T06:03:09;7.67;;;4.90;;
70946;SDS011;58605;48.700;8.760;2022-07-05T06:05:35;5.57;;;4.83;;
70946;SDS011;58605;48.700;8.760;2022-07-05T06:08:02;4.43;;;4.03;;
70946;SDS011;58605;48.700;8.760;2022-07-05T06:10:29;4.33;;;3.93;;
70946;SDS011;58605;48.700;8.760;2022-07-05T06:12:56;6.93;;;4.03;;
70946;SDS011;58605;48.700;8.760;2022-07-05T06:15:25;6.73;;;4.17;;
70946;SDS011;58605;48.700;8.760;2022-07-05T06:17:51;4.63;;;4.10;;
70946;SDS011;58605;48.700;8.760;2022-07-05T06:20:17;5.50;;;3.60;;
70946;SDS011;58605;48.700;8.760;2022-07-05T06:22:45;4.07;;;3.77;;
70946;SDS011;58605;48.700;8.760;2022-07-05T06:25:12;3.83;;;3.53;;
70946;SDS011;58605;48.700;8.760;2022-07-05T06:27:38;6.43;;;3.90;;
70946;SDS011;58605;48.700;8.760;2022-07-05T06:30:06;4.73;;;4.00;;
70946;SDS011;58605;48.700;8.760;2022-07-05T06:32:34;7.60;;;3.70;;
70946;SDS011;58605;48.700;8.760;2022-07-05T06:35:01;3.93;;;3.00;;
70946;SDS011;58605;48.700;8.760;2022-07-05T06:37:27;4.90;;;2.93;;
70946;SDS011;58605;48.700;8.760;2022-07-05T06:40:05;3.57;;;3.10;;
70946;SDS011;58605;48.700;8.760;2022-07-05T06:42:31;5.32;;;3.25;;
70946;SDS011;58605;48.700;8.760;2022-07-05T06:44:58;4.30;;;3.00;;
70946;SDS011;58605;48.700;8.760;2022-07-05T06:47:24;3.03;;;2.30;;
70946;SDS011;58605;48.700;8.760;2022-07-05T06:49:51;3.70;;;2.88;;
70946;SDS011;58605;48.700;8.760;2022-07-05T06:52:17;2.60;;;2.40;;
70946;SDS011;58605;48.700;8.760;2022-07-05T06:54:43;2.88;;;2.63;;
70946;SDS011;58605;48.700;8.760;2022-07-05T06:57:09;3.53;;;2.30;;
70946;SDS011;58605;48.700;8.760;2022-07-05T06:59:35;2.55;;;2.35;;
70946;SDS011;58605;48.700;8.760;2022-07-05T07:02:02;5.03;;;2.47;;
70946;SDS011;58605;48.700;8.760;2022-07-05T07:04:28;6.45;;;2.72;;
70946;SDS011;58605;48.700;8.760;2022-07-05T07:06:55;3.28;;;2.97;;
70946;SDS011;58605;48.700;8.760;2022-07-05T07:09:21;5.78;;;2.70;;
70946;SDS011;58605;48.700;8.760;2022-07-05T07:11:48;9.52;;;2.90;;
70946;SDS011;58605;48.700;8.760;2022-07-05T07:14:14;1.83;;;1.65;;
70946;SDS011;58605;48.700;8.760;2022-07-05T07:16:41;1.90;;;1.67;;
70946;SDS011;58605;48.700;8.760;2022-07-05T07:19:07;4.03;;;1.90;;
70946;SDS011;58605;48.700;8.760;2022-07-05T07:21:33;1.83;;;1.60;;
70946;SDS011;58605;48.700;8.760;2022-07-05T07:24:01;3.25;;;1.70;;
70946;SDS011;58605;48.700;8.760;2022-07-05T07:26:28;3.45;;;1.70;;
70946;SDS011;58605;48.700;8.760;2022-07-05T07:28:54;2.80;;;2.08;;
70946;SDS011;58605;48.700;8.760;2022-07-05T07:31:20;3.70;;;1.90;;
70946;SDS011;58605;48.700;8.760;2022-07-05T07:33:46;2.92;;;1.70;;
70946;SDS011;58605;48.700;8.760;2022-07-05T07:36:12;1.70;;;1.60;;
70946;SDS011;58605;48.700;8.760;2022-07-05T07:38:38;2.65;;;1.85;;
70946;SDS011;58605;48.700;8.760;2022-07-05T07:41:05;2.00;;;1.73;;
70946;SDS011;58605;48.700;8.760;2022-07-05T07:43:31;1.80;;;1.65;;
70946;SDS011;58605;48.700;8.760;2022-07-05T07:45:57;2.30;;;2.10;;
70946;SDS011;58605;48.700;8.760;2022-07-05T07:48:23;3.15;;;2.00;;
70946;SDS011;58605;48.700;8.760;2022-07-05T07:50:51;3.20;;;1.70;;
70946;SDS011;58605;48.700;8.760;2022-07-05T07:53:16;2.80;;;1.90;;
70946;SDS011;58605;48.700;8.760;2022-07-05T07:55:45;1.92;;;1.45;;
70946;SDS011;58605;48.700;8.760;2022-07-05T07:58:14;1.95;;;1.52;;
70946;SDS011;58605;48.700;8.760;2022-07-05T08:00:40;2.72;;;1.70;;
70946;SDS011;58605;48.700;8.760;2022-07-05T08:03:06;1.65;;;1.55;;
70946;SDS011;58605;48.700;8.760;2022-07-05T08:05:32;2.00;;;1.80;;
70946;SDS011;58605;48.700;8.760;2022-07-05T08:07:58;1.80;;;1.70;;
70946;SDS011;58605;48.700;8.760;2022-07-05T08:10:24;2.50;;;1.70;;
70946;SDS011;58605;48.700;8.760;2022-07-05T08:12:50;1.70;;;1.60;;
70946;SDS011;58605;48.700;8.760;2022-07-05T08:15:18;3.22;;;1.70;;
70946;SDS011;58605;48.700;8.760;2022-07-05T08:17:44;2.13;;;1.67;;
70946;SDS011;58605;48.700;8.760;2022-07-05T08:20:30;2.25;;;1.60;;
70946;SDS011;58605;48.700;8.760;2022-07-05T08:23:14;1.70;;;1.60;;
70946;SDS011;58605;48.700;8.760;2022-07-05T08:25:40;2.42;;;1.60;;
70946;SDS011;58605;48.700;8.760;2022-07-05T08:28:06;3.25;;;1.80;;
70946;SDS011;58605;48.700;8.760;2022-07-05T08:30:34;3.08;;;1.55;;
70946;SDS011;58605;48.700;8.760;2022-07-05T08:33:00;1.80;;;1.70;;
70946;SDS011;58605;48.700;8.760;2022-07-05T08:35:26;2.10;;;1.40;;
70946;SDS011;58605;48.700;8.760;2022-07-05T08:37:52;3.08;;;1.42;;
70946;SDS011;58605;48.700;8.760;2022-07-05T08:40:18;2.45;;;1.80;;
70946;SDS011;58605;48.700;8.760;2022-07-05T08:42:50;3.25;;;1.83;;
70946;SDS011;58605;48.700;8.760;2022-07-05T08:45:18;1.90;;;1.60;;
70946;SDS011;58605;48.700;8.760;2022-07-05T08:47:45;2.35;;;1.70;;
70946;SDS011;58605;48.700;8.760;2022-07-05T08:50:13;1.80;;;1.67;;
70946;SDS011;58605;48.700;8.760;2022-07-05T08:52:40;2.40;;;1.60;;
70946;SDS011;58605;48.700;8.760;2022-07-05T08:55:07;1.98;;;1.80;;
70946;SDS011;58605;48.700;8.760;2022-07-05T08:57:33;2.03;;;1.85;;
70946;SDS011;58605;48.700;8.760;2022-07-05T08:59:59;2.15;;;1.70;;
70946;SDS011;58605;48.700;8.760;2022-07-05T09:02:25;2.08;;;1.88;;
70946;SDS011;58605;48.700;8.760;2022-07-05T09:04:53;1.70;;;1.60;;
70946;SDS011;58605;48.700;8.760;2022-07-05T09:07:21;3.40;;;1.65;;
70946;SDS011;58605;48.700;8.760;2022-07-05T09:09:50;2.60;;;1.80;;
70946;SDS011;58605;48.700;8.760;2022-07-05T09:12:16;4.85;;;1.85;;
70946;SDS011;58605;48.700;8.760;2022-07-05T09:14:42;3.22;;;1.65;;
70946;SDS011;58605;48.700;8.760;2022-07-05T09:17:09;2.13;;;1.63;;
70946;SDS011;58605;48.700;8.760;2022-07-05T09:19:36;1.90;;;1.80;;
70946;SDS011;58605;48.700;8.760;2022-07-05T09:22:04;3.10;;;1.80;;
70946;SDS011;58605;48.700;8.760;2022-07-05T09:24:31;2.75;;;1.70;;
70946;SDS011;58605;48.700;8.760;2022-07-05T09:27:01;2.58;;;1.83;;
70946;SDS011;58605;48.700;8.760;2022-07-05T09:29:29;1.60;;;1.50;;
70946;SDS011;58605;48.700;8.760;2022-07-05T09:31:55;2.35;;;1.63;;
70946;SDS011;58605;48.700;8.760;2022-07-05T09:34:21;2.65;;;1.50;;
70946;SDS011;58605;48.700;8.760;2022-07-05T09:36:51;2.17;;;1.70;;
70946;SDS011;58605;48.700;8.760;2022-07-05T09:39:33;1.60;;;1.50;;
70946;SDS011;58605;48.700;8.760;2022-07-05T09:42:10;1.60;;;1.50;;
70946;SDS011;58605;48.700;8.760;2022-07-05T09:44:38;2.15;;;1.40;;
70946;SDS011;58605;48.700;8.760;2022-07-05T09:47:07;2.88;;;1.73;;
70946;SDS011;58605;48.700;8.760;2022-07-05T09:49:35;3.20;;;1.70;;
70946;SDS011;58605;48.700;8.760;2022-07-05T09:52:01;2.70;;;1.80;;
70946;SDS011;58605;48.700;8.760;2022-07-05T09:54:29;5.22;;;1.70;;
70946;SDS011;58605;48.700;8.760;2022-07-05T09:56:55;3.20;;;1.50;;
70946;SDS011;58605;48.700;8.760;2022-07-05T09:59:21;3.30;;;2.00;;
70946;SDS011;58605;48.700;8.760;2022-07-05T10:01:47;2.25;;;2.05;;
70946;SDS011;58605;48.700;8.760;2022-07-05T10:04:14;2.30;;;1.80;;
70946;SDS011;58605;48.700;8.760;2022-07-05T10:06:40;3.67;;;1.70;;
70946;SDS011;58605;48.700;8.760;2022-07-05T10:09:07;3.00;;;1.95;;
70946;SDS011;58605;48.700;8.760;2022-07-05T10:11:37;3.38;;;1.63;;
70946;SDS011;58605;48.700;8.760;2022-07-05T10:14:06;2.78;;;1.70;;
70946;SDS011;58605;48.700;8.760;2022-07-05T10:16:36;1.80;;;1.70;;
70946;SDS011;58605;48.700;8.760;2022-07-05T10:19:11;2.63;;;1.70;;
70946;SDS011;58605;48.700;8.760;2022-07-05T10:21:41;2.33;;;1.75;;
70946;SDS011;58605;48.700;8.760;2022-07-05T10:24:08;2.15;;;1.70;;
70946;SDS011;58605;48.700;8.760;2022-07-05T10:26:34;2.70;;;1.70;;
70946;SDS011;58605;48.700;8.760;2022-07-05T10:29:04;4.32;;;1.60;;
70946;SDS011;58605;48.700;8.760;2022-07-05T10:31:30;2.03;;;1.73;;
70946;SDS011;58605;48.700;8.760;2022-07-05T10:33:56;1.85;;;1.60;;
70946;SDS011;58605;48.700;8.760;2022-07-05T10:36:32;2.63;;;1.98;;
70946;SDS011;58605;48.700;8.760;2022-07-05T10:39:00;2.55;;;1.85;;
70946;SDS011;58605;48.700;8.760;2022-07-05T10:41:27;3.20;;;1.80;;
70946;SDS011;58605;48.700;8.760;2022-07-05T10:43:57;2.58;;;1.85;;
70946;SDS011;58605;48.700;8.760;2022-07-05T10:46:34;2.95;;;1.70;;
70946;SDS011;58605;48.700;8.760;2022-07-05T10:49:13;1.80;;;1.70;;
70946;SDS011;58605;48.700;8.760;2022-07-05T10:51:40;2.80;;;2.00;;
70946;SDS011;58605;48.700;8.760;2022-07-05T10:54:07;1.70;;;1.60;;
70946;SDS011;58605;48.700;8.760;2022-07-05T10:56:33;3.92;;;1.80;;
70946;SDS011;58605;48.700;8.760;2022-07-05T10:59:10;1.83;;;1.65;;
70946;SDS011;58605;48.700;8.760;2022-07-05T11:01:39;2.08;;;1.88;;
70946;SDS011;58605;48.700;8.760;2022-07-05T11:04:23;4.03;;;2.10;;
70946;SDS011;58605;48.700;8.760;2022-07-05T11:06:55;2.10;;;1.60;;
70946;SDS011;58605;48.700;8.760;2022-07-05T11:09:21;1.95;;;1.80;;
70946;SDS011;58605;48.700;8.760;2022-07-05T11:12:01;3.53;;;1.90;;
70946;SDS011;58605;48.700;8.760;2022-07-05T11:14:48;2.10;;;1.70;;
70946;SDS011;58605;48.700;8.760;2022-07-05T11:17:24;3.65;;;1.88;;
70946;SDS011;58605;48.700;8.760;2022-07-05T11:20:03;1.98;;;1.77;;
70946;SDS011;58605;48.700;8.760;2022-07-05T11:22:34;2.17;;;1.80;;
70946;SDS011;58605;48.700;8.760;2022-07-05T11:25:01;2.80;;;2.17;;
70946;SDS011;58605;48.700;8.760;2022-07-05T11:27:28;4.07;;;1.75;;
70946;SDS011;58605;48.700;8.760;2022-07-05T11:29:57;2.03;;;1.77;;
70946;SDS011;58605;48.700;8.760;2022-07-05T11:32:34;2.92;;;1.90;;
70946;SDS011;58605;48.700;8.760;2022-07-05T11:35:11;2.85;;;1.88;;
70946;SDS011;58605;48.700;8.760;2022-07-05T11:40:31;2.33;;;1.70;;
70946;SDS011;58605;48.700;8.760;2022-07-05T11:42:58;3.60;;;2.13;;
70946;SDS011;58605;48.700;8.760;2022-07-05T11:45:26;3.28;;;1.90;;
70946;SDS011;58605;48.700;8.760;2022-07-05T11:47:54;2.08;;;1.95;;
70946;SDS011;58605;48.700;8.760;2022-07-05T11:50:25;2.50;;;2.10;;
70946;SDS011;58605;48.700;8.760;2022-07-05T11:52:52;2.20;;;1.75;;
70946;SDS011;58605;48.700;8.760;2022-07-05T11:55:18;4.43;;;1.80;;
70946;SDS011;58605;48.700;8.760;2022-07-05T11:57:48;3.78;;;2.20;;
70946;SDS011;58605;48.700;8.760;2022-07-05T12:00:26;2.08;;;1.88;;
70946;SDS011;58605;48.700;8.760;2022-07-05T12:02:53;2.47;;;2.00;;
70946;SDS011;58605;48.700;8.760;2022-07-05T12:05:19;1.95;;;1.75;;
70946;SDS011;58605;48.700;8.760;2022-07-05T12:07:48;1.80;;;1.70;;
70946;SDS011;58605;48.700;8.760;2022-07-05T12:10:15;3.25;;;2.45;;
70946;SDS011;58605;48.700;8.760;2022-07-05T12:13:03;5.00;;;2.00;;
70946;SDS011;58605;48.700;8.760;2022-07-05T12:15:31;3.08;;;1.77;;
70946;SDS011;58605;48.700;8.760;2022-07-05T12:17:59;3.25;;;2.03;;
70946;SDS011;58605;48.700;8.760;2022-07-05T12:20:36;3.15;;;2.25;;
70946;SDS011;58605;48.700;8.760;2022-07-05T12:23:04;3.28;;;1.98;;
70946;SDS011;58605;48.700;8.760;2022-07-05T12:25:31;3.45;;;2.03;;
70946;SDS011;58605;48.700;8.760;2022-07-05T12:28:12;3.05;;;1.92;;
70946;SDS011;58605;48.700;8.760;2022-07-05T12:30:41;2.33;;;1.80;;
70946;SDS011;58605;48.700;8.760;2022-07-05T12:33:07;3.83;;;2.05;;
70946;SDS011;58605;48.700;8.760;2022-07-05T12:35:38;5.25;;;2.05;;
70946;SDS011;58605;48.700;8.760;2022-07-05T12:38:06;3.75;;;2.33;;
70946;SDS011;58605;48.700;8.760;2022-07-05T12:40:33;2.75;;;1.95;;
70946;SDS011;58605;48.700;8.760;2022-07-05T12:43:04;2.65;;;2.08;;
70946;SDS011;58605;48.700;8.760;2022-07-05T12:45:32;3.83;;;2.20;;
70946;SDS011;58605;48.700;8.760;2022-07-05T12:48:01;2.25;;;1.88;;
70946;SDS011;58605;48.700;8.760;2022-07-05T12:50:29;4.82;;;1.95;;
70946;SDS011;58605;48.700;8.760;2022-07-05T12:53:10;3.90;;;2.22;;
70946;SDS011;58605;48.700;8.760;2022-07-05T12:55:57;2.25;;;2.05;;
70946;SDS011;58605;48.700;8.760;2022-07-05T12:58:45;3.55;;;2.08;;
70946;SDS011;58605;48.700;8.760;2022-07-05T13:01:21;2.80;;;2.00;;
70946;SDS011;58605;48.700;8.760;2022-07-05T13:03:57;2.05;;;1.70;;
70946;SDS011;58605;48.700;8.760;2022-07-05T13:06:38;3.90;;;1.98;;
70946;SDS011;58605;48.700;8.760;2022-07-05T13:09:05;2.25;;;1.67;;
70946;SDS011;58605;48.700;8.760;2022-07-05T13:11:31;5.00;;;2.35;;
70946;SDS011;58605;48.700;8.760;2022-07-05T13:13:57;3.10;;;1.95;;
70946;SDS011;58605;48.700;8.760;2022-07-05T13:16:23;3.20;;;1.90;;
70946;SDS011;58605;48.700;8.760;2022-07-05T13:18:49;2.38;;;2.00;;
70946;SDS011;58605;48.700;8.760;2022-07-05T13:21:17;2.25;;;1.80;;
70946;SDS011;58605;48.700;8.760;2022-07-05T13:23:43;3.50;;;2.25;;
70946;SDS011;58605;48.700;8.760;2022-07-05T13:26:09;3.13;;;1.90;;
70946;SDS011;58605;48.700;8.760;2022-07-05T13:28:35;4.93;;;1.70;;
70946;SDS011;58605;48.700;8.760;2022-07-05T13:31:01;3.03;;;2.22;;
70946;SDS011;58605;48.700;8.760;2022-07-05T13:33:27;2.20;;;1.98;;
70946;SDS011;58605;48.700;8.760;2022-07-05T13:35:53;2.75;;;1.73;;
70946;SDS011;58605;48.700;8.760;2022-07-05T13:38:21;2.67;;;1.90;;
70946;SDS011;58605;48.700;8.760;2022-07-05T13:40:47;3.63;;;1.90;;
70946;SDS011;58605;48.700;8.760;2022-07-05T13:43:13;2.67;;;1.90;;
70946;SDS011;58605;48.700;8.760;2022-07-05T13:45:39;3.20;;;1.75;;
70946;SDS011;58605;48.700;8.760;2022-07-05T13:48:06;2.13;;;1.92;;
70946;SDS011;58605;48.700;8.760;2022-07-05T13:50:32;3.97;;;1.90;;
70946;SDS011;58605;48.700;8.760;2022-07-05T13:52:58;2.45;;;2.25;;
70946;SDS011;58605;48.700;8.760;2022-07-05T13:55:25;4.13;;;1.77;;
70946;SDS011;58605;48.700;8.760;2022-07-05T13:57:51;4.32;;;2.08;;
70946;SDS011;58605;48.700;8.760;2022-07-05T14:00:17;4.30;;;1.90;;
70946;SDS011;58605;48.700;8.760;2022-07-05T14:02:44;2.50;;;1.80;;
70946;SDS011;58605;48.700;8.760;2022-07-05T14:05:10;5.63;;;1.95;;
70946;SDS011;58605;48.700;8.760;2022-07-05T14:07:37;1.92;;;1.73;;
70946;SDS011;58605;48.700;8.760;2022-07-05T14:10:03;2.92;;;1.77;;
70946;SDS011;58605;48.700;8.760;2022-07-05T14:12:31;1.80;;;1.70;;
70946;SDS011;58605;48.700;8.760;2022-07-05T14:14:57;3.17;;;1.88;;
70946;SDS011;58605;48.700;8.760;2022-07-05T14:17:23;2.03;;;1.77;;
70946;SDS011;58605;48.700;8.760;2022-07-05T14:19:49;1.98;;;1.88;;
70946;SDS011;58605;48.700;8.760;2022-07-05T14:22:15;1.73;;;1.60;;
70946;SDS011;58605;48.700;8.760;2022-07-05T14:24:41;4.22;;;2.17;;
70946;SDS011;58605;48.700;8.760;2022-07-05T14:27:07;3.08;;;1.95;;
70946;SDS011;58605;48.700;8.760;2022-07-05T14:29:35;3.40;;;1.73;;
70946;SDS011;58605;48.700;8.760;2022-07-05T14:32:01;2.05;;;1.80;;
70946;SDS011;58605;48.700;8.760;2022-07-05T14:34:27;2.58;;;1.70;;
70946;SDS011;58605;48.700;8.760;2022-07-05T14:36:53;2.70;;;1.90;;
70946;SDS011;58605;48.700;8.760;2022-07-05T14:39:19;2.55;;;1.80;;
70946;SDS011;58605;48.700;8.760;2022-07-05T14:41:45;3.58;;;1.70;;
70946;SDS011;58605;48.700;8.760;2022-07-05T14:44:12;1.80;;;1.70;;
70946;SDS011;58605;48.700;8.760;2022-07-05T14:46:39;2.83;;;1.80;;
70946;SDS011;58605;48.700;8.760;2022-07-05T14:49:05;1.60;;;1.50;;
70946;SDS011;58605;48.700;8.760;2022-07-05T14:51:31;2.10;;;1.90;;
70946;SDS011;58605;48.700;8.760;2022-07-05T14:53:58;2.80;;;1.52;;